createdAt,value
2019-05-05T00:02:22.217Z,100993.24
2019-05-05T00:07:27.438Z,100997.62
2019-05-05T00:12:31.622Z,101006.48
2019-05-05T00:17:35.947Z,101012.65
2019-05-05T00:22:40.272Z,101003.47
2019-05-05T00:27:45.240Z,101006.31
2019-05-05T00:32:49.858Z,101011.09
2019-05-05T00:42:59.320Z,101017.61
2019-05-05T00:48:04.732Z,101012.61
2019-05-05T00:53:09.899Z,101016.44
2019-05-05T00:58:14.975Z,101020.33
2019-05-05T01:03:20.040Z,101013.23
2019-05-05T01:08:25.902Z,101018.56
2019-05-05T01:13:31.018Z,101013.73
2019-05-05T01:18:35.970Z,101019.25
2019-05-05T01:23:41.088Z,101013.16
2019-05-05T01:28:45.422Z,101015.80
2019-05-05T01:33:50.659Z,101008.52
2019-05-05T01:38:56.066Z,101014.30
2019-05-05T01:44:01.485Z,101001.17
2019-05-05T01:49:05.936Z,100990.11
2019-05-05T01:54:11.400Z,100995.58
2019-05-05T01:59:16.975Z,100989.30
2019-05-05T02:04:21.553Z,100989.41
2019-05-05T02:09:27.329Z,100998.32
2019-05-05T02:14:32.327Z,100997.97
2019-05-05T02:19:38.706Z,101005.56
2019-05-05T02:24:44.595Z,101003.20
2019-05-05T02:29:50.142Z,101001.43
2019-05-05T02:34:56.515Z,100995.09
2019-05-05T02:40:06.558Z,100991.31
2019-05-05T02:45:08.133Z,100992.11
2019-05-05T02:50:15.574Z,100990.70
2019-05-05T02:55:19.628Z,100990.32
2019-05-05T03:00:24.710Z,100990.04
2019-05-05T03:05:30.399Z,100987.66
2019-05-05T03:10:36.695Z,100978.36
2019-05-05T03:15:51.420Z,100977.56
2019-05-05T03:21:04.427Z,100979.61
2019-05-05T03:26:03.963Z,100979.41
2019-05-05T03:31:08.946Z,100980.63
2019-05-05T03:36:14.783Z,100984.97
2019-05-05T03:41:19.174Z,100983.94
2019-05-05T03:46:23.862Z,100989.73
2019-05-05T03:51:29.857Z,100992.32
2019-05-05T03:56:34.969Z,100997.05
2019-05-05T04:01:39.636Z,100994.91
2019-05-05T04:06:44.658Z,100985.70
2019-05-05T04:11:49.769Z,100988.19
2019-05-05T04:16:55.404Z,100994.91
2019-05-05T04:22:00.647Z,100989.70
2019-05-05T04:27:05.473Z,100988.95
2019-05-05T04:32:11.166Z,100986.85
2019-05-05T04:37:16.623Z,100982.29
2019-05-05T04:42:24.548Z,100989.59
2019-05-05T04:47:28.984Z,100991.27
2019-05-05T04:52:34.435Z,100988.83
2019-05-05T04:57:38.837Z,100987.02
2019-05-05T05:02:43.837Z,100990.23
2019-05-05T05:07:49.192Z,100959.20
2019-05-05T05:12:54.650Z,100992.13
2019-05-05T05:18:00.592Z,100994.77
2019-05-05T05:23:05.262Z,100995.37
2019-05-05T05:28:10.154Z,100994.39
2019-05-05T05:33:14.975Z,100995.51
2019-05-05T05:38:24.094Z,100990.72
2019-05-05T05:43:28.718Z,100999.25
2019-05-05T05:48:34.247Z,100999.31
2019-05-05T05:53:39.219Z,101012.56
2019-05-05T05:58:45.747Z,101008.20
2019-05-05T06:03:50.785Z,101010.56
2019-05-05T06:08:56.035Z,101008.22
2019-05-05T06:14:04.019Z,101015.52
2019-05-05T06:19:10.327Z,101008.59
2019-05-05T06:24:14.241Z,101016.05
2019-05-05T06:29:18.457Z,101012.00
2019-05-05T06:34:24.408Z,101012.06
2019-05-05T06:39:29.206Z,101008.84
2019-05-05T06:44:34.027Z,101008.10
2019-05-05T06:49:39.073Z,101015.57
2019-05-05T06:54:43.944Z,101019.52
2019-05-05T06:59:48.976Z,101020.88
2019-05-05T07:04:54.673Z,101021.29
2019-05-05T07:09:59.254Z,101014.30
2019-05-05T07:15:06.235Z,101015.24
2019-05-05T07:20:13.588Z,101024.95
2019-05-05T07:25:19.379Z,101024.66
2019-05-05T07:30:24.962Z,101028.48
2019-05-05T07:35:29.711Z,101022.36
2019-05-05T07:40:35.108Z,101023.13
2019-05-05T07:45:39.969Z,101029.36
2019-05-05T07:50:58.180Z,101026.93
2019-05-05T07:55:54.051Z,101021.28
2019-05-05T08:00:58.849Z,101029.31
2019-05-05T08:06:04.055Z,101028.07
2019-05-05T08:11:09.591Z,101022.72
2019-05-05T08:16:15.215Z,101024.52
2019-05-05T08:21:21.007Z,101023.20
2019-05-05T08:26:34.169Z,101028.22
2019-05-05T08:31:39.419Z,101034.33
2019-05-05T08:36:44.725Z,101026.82
2019-05-05T08:41:49.587Z,101028.09
2019-05-05T08:46:54.624Z,101015.25
2019-05-05T08:51:59.691Z,101025.39
2019-05-05T08:57:04.932Z,101027.16
2019-05-05T09:02:09.135Z,101029.76
2019-05-05T09:07:14.172Z,101027.80
2019-05-05T09:12:20.247Z,101028.27
2019-05-05T09:17:28.039Z,101037.31
2019-05-05T09:22:32.329Z,101037.48
2019-05-05T09:27:37.229Z,101030.55
2019-05-05T09:32:43.883Z,101032.45
2019-05-05T09:37:48.959Z,101033.89
2019-05-05T09:42:54.212Z,101034.41
2019-05-05T09:47:59.328Z,101042.91
2019-05-05T09:53:04.243Z,101038.45
2019-05-05T09:58:10.625Z,101038.17
2019-05-05T10:03:14.936Z,101038.66
2019-05-05T10:08:20.346Z,101031.13
2019-05-05T10:13:26.769Z,101030.93
2019-05-05T10:18:35.508Z,101034.58
2019-05-05T10:23:40.565Z,101038.75
2019-05-05T10:28:45.037Z,101034.63
2019-05-05T10:33:50.196Z,101035.04
2019-05-05T10:38:56.002Z,101040.51
2019-05-05T10:44:03.545Z,101035.19
2019-05-05T10:49:08.625Z,101041.35
2019-05-05T10:54:14.241Z,101036.00
2019-05-05T10:59:18.673Z,101033.17
2019-05-05T11:04:24.349Z,101041.75
2019-05-05T11:09:31.112Z,101037.96
2019-05-05T11:14:35.627Z,101035.33
2019-05-05T11:19:41.647Z,101041.94
2019-05-05T11:24:57.689Z,101039.25
2019-05-05T11:29:54.131Z,101042.78
2019-05-05T11:34:59.562Z,101044.83
2019-05-05T11:40:04.310Z,101047.84
2019-05-05T11:45:08.847Z,101041.83
2019-05-05T11:50:13.524Z,101038.61
2019-05-05T11:55:17.763Z,101047.58
2019-05-05T12:00:24.158Z,101042.50
2019-05-05T12:05:29.079Z,101036.95
2019-05-05T12:10:34.994Z,101036.80
2019-05-05T12:15:40.312Z,101036.95
2019-05-05T12:20:46.224Z,101031.88
2019-05-05T12:25:56.901Z,101043.09
2019-05-05T12:31:01.010Z,101029.86
2019-05-05T12:36:06.787Z,101024.43
2019-05-05T12:41:11.464Z,101026.35
2019-05-05T12:46:17.327Z,101026.05
2019-05-05T12:51:23.606Z,101027.88
2019-05-05T12:56:29.213Z,101031.48
2019-05-05T13:01:37.334Z,101030.26
2019-05-05T13:06:44.889Z,101021.72
2019-05-05T13:11:48.652Z,101020.17
2019-05-05T13:16:56.170Z,101020.17
2019-05-05T13:22:01.101Z,101021.36
2019-05-05T13:27:10.880Z,101009.48
2019-05-05T13:32:14.408Z,101007.45
2019-05-05T13:37:19.114Z,101008.97
2019-05-05T13:42:24.547Z,101005.73
2019-05-05T13:47:29.261Z,101003.69
2019-05-05T13:52:34.213Z,101001.20
2019-05-05T13:57:39.315Z,100994.15
2019-05-05T14:02:44.776Z,100999.77
2019-05-05T14:07:49.994Z,100991.27
2019-05-05T14:12:54.946Z,100960.73
2019-05-05T14:18:00.045Z,100978.39
2019-05-05T14:23:05.575Z,100983.82
2019-05-05T14:28:09.890Z,100977.14
2019-05-05T14:33:15.582Z,100976.19
2019-05-05T14:38:23.115Z,100967.20
2019-05-05T14:43:27.929Z,100971.97
2019-05-05T14:48:34.048Z,100961.45
2019-05-05T14:53:39.975Z,100960.39
2019-05-05T14:58:44.848Z,100953.68
2019-05-05T15:03:49.471Z,100951.08
2019-05-05T15:08:54.654Z,100945.34
2019-05-05T15:13:59.615Z,100942.74
2019-05-05T15:19:04.335Z,100933.36
2019-05-05T15:24:10.087Z,100926.98
2019-05-05T15:29:14.884Z,100925.96
2019-05-05T15:34:20.565Z,100920.67
2019-05-05T15:39:25.961Z,100926.47
2019-05-05T15:44:30.720Z,100917.85
2019-05-05T15:49:37.471Z,100916.00
2019-05-05T15:54:42.036Z,100907.09
2019-05-05T15:59:47.546Z,100903.50
2019-05-05T16:04:54.109Z,100890.58
2019-05-05T16:09:58.594Z,100904.31
2019-05-05T16:15:04.487Z,100897.52
2019-05-05T16:20:09.697Z,100965.46
2019-05-05T16:25:15.992Z,100894.84
2019-05-05T16:30:23.444Z,100890.58
2019-05-05T16:35:48.931Z,100886.33
2019-05-05T16:40:53.811Z,100889.77
2019-05-05T16:45:58.460Z,100888.76
2019-05-05T16:51:04.391Z,100886.23
2019-05-05T16:56:14.044Z,100886.23
2019-05-05T17:01:18.893Z,100883.86
2019-05-05T17:06:24.433Z,100878.22
2019-05-05T17:11:29.257Z,100885.00
2019-05-05T17:16:35.336Z,100872.14
2019-05-05T17:21:40.200Z,100881.19
2019-05-05T17:26:44.944Z,100882.27
2019-05-05T17:31:49.671Z,100870.63
2019-05-05T17:36:54.146Z,100871.52
2019-05-05T17:41:58.959Z,100871.73
2019-05-05T17:47:04.483Z,100868.36
2019-05-05T17:52:10.883Z,100868.98
2019-05-05T17:57:16.159Z,100871.64
2019-05-05T18:02:20.698Z,100868.87
2019-05-05T18:07:25.499Z,100871.52
2019-05-05T18:12:34.758Z,100874.34
2019-05-05T18:17:39.702Z,100877.66
2019-05-05T18:22:47.458Z,100880.41
2019-05-05T18:27:52.572Z,100866.55
2019-05-05T18:32:57.580Z,100864.58
2019-05-05T18:38:04.213Z,100865.31
2019-05-05T18:43:09.579Z,100866.84
2019-05-05T18:48:14.503Z,100864.45
2019-05-05T18:53:19.505Z,100860.30
2019-05-05T18:58:29.685Z,100862.44
2019-05-05T19:03:31.215Z,100855.00
2019-05-05T19:08:35.919Z,100854.34
2019-05-05T19:13:41.755Z,100852.33
2019-05-05T19:18:47.502Z,100852.60
2019-05-05T19:23:54.172Z,100845.97
2019-05-05T19:29:02.142Z,100844.14
2019-05-05T19:34:05.999Z,100842.52
2019-05-05T19:39:11.174Z,100848.61
2019-05-05T19:44:16.120Z,100841.25
2019-05-05T19:49:21.360Z,100832.84
2019-05-05T19:54:26.860Z,100842.70
2019-05-05T19:59:31.340Z,100846.40
2019-05-05T20:04:35.839Z,100843.50
2019-05-05T20:09:45.889Z,100845.27
2019-05-05T20:14:50.152Z,100846.69
2019-05-05T20:19:54.749Z,100840.34
2019-05-05T20:24:59.259Z,100843.53
2019-05-05T20:30:07.819Z,100833.59
2019-05-05T20:35:18.672Z,100840.44
2019-05-05T20:40:24.486Z,100845.08
2019-05-05T20:45:30.520Z,100843.76
2019-05-05T20:50:40.533Z,100839.47
2019-05-05T20:55:47.631Z,100839.01
2019-05-05T21:00:54.921Z,100840.98
2019-05-05T21:06:00.440Z,100838.70
2019-05-05T21:11:04.821Z,100842.47
2019-05-05T21:16:09.238Z,100841.27
2019-05-05T21:21:24.804Z,100826.03
2019-05-05T21:26:29.840Z,100826.31
2019-05-05T21:31:36.320Z,100832.43
2019-05-05T21:36:41.534Z,100832.50
2019-05-05T21:41:46.599Z,100822.90
2019-05-05T21:46:53.675Z,100834.95
2019-05-05T21:52:08.636Z,100828.84
2019-05-05T21:57:14.103Z,100833.45
2019-05-05T22:02:19.171Z,100829.87
2019-05-05T22:07:24.154Z,100835.92
2019-05-05T22:12:29.091Z,100839.99
2019-05-05T22:17:33.663Z,100842.52
2019-05-05T22:22:49.571Z,100837.20
2019-05-05T22:27:54.558Z,100833.16
2019-05-05T22:33:10.592Z,100830.03
2019-05-05T22:38:18.639Z,100826.66
2019-05-05T22:43:34.541Z,100828.42
2019-05-05T22:48:40.200Z,100825.86
2019-05-05T22:53:44.659Z,100828.45
2019-05-05T22:58:59.516Z,100821.72
2019-05-05T23:04:04.970Z,100813.33
2019-05-05T23:09:21.876Z,100814.22
2019-05-05T23:14:26.232Z,100813.52
2019-05-05T23:19:36.900Z,100817.24
2019-05-05T23:24:44.964Z,100810.95
2019-05-05T23:29:49.946Z,100813.74
2019-05-05T23:34:54.665Z,100810.14
2019-05-05T23:40:00.392Z,100815.26
2019-05-05T23:45:13.820Z,100805.44
2019-05-05T23:50:25.014Z,100802.75
2019-05-05T23:55:29.665Z,100804.76
